CYLL

Lloydminster Airport

Lloydminster, Alberta, Canada
METAR CYLL 240700Z AUTO 12011KT 9SM FEW095 BKN160 BKN190 20/07 A2979 RMK SLP084 DENSITY ALT 3300FT
Observed Flight Rules
May-24 @ 07:00 UTC (an hour ago) Visual Flight Rules
Wind Visibility Clouds
120° at 11 knots 9 miles
  • Few at 9,500' AGL
  • Broken at 16,000' AGL
  • Broken at 19,000' AGL
Temperatures Readings
Current 20°C / 68°F
Dewpoint 7°C / 45°F
Humidity 43%
Altimeter 29.79" Hg
Pressure 1008.4 hPa
Elevation 669
METAR CYLL 240700Z AUTO 12011KT 9SM FEW095 BKN160 BKN190 20/07 A2979 RMK SLP084 DENSITY ALT 3300FT
Observed Flight Rules
May-24 @ 07:00 UTC
(an hour ago)
VFR
Wind Visibility
120° at 11 knots 9 miles
Clouds
  • Few at 9,500' AGL
  • Broken at 16,000' AGL
  • Broken at 19,000' AGL
Temperature Dewpoint
20°C / 68°F 7°C / 45°F
Humidity Altimeter Pressure
43% 29.79" Hg 1008.4 hPa